Time;durP1;ratioP1;P1;durP2;ratioP2;P2;SDS_P1;SDS_P2;PMS_P1;PMS_P2;Temp;Humidity;BMP_temperature;BMP_pressure;BME280_temperature;BME280_humidity;BME280_pressure;Samples;Min_cycle;Max_cycle;Signal;HPM_P1;HPM_P2
2022/05/22 00:01:27;;;;;;;2.40;2.23;;;;;;;20.81;69.44;98953.44;5009961;28;20288;-70
2022/05/22 00:03:54;;;;;;;2.33;2.23;;;;;;;20.85;70.00;98949.66;5011371;28;20233;-70
2022/05/22 00:06:21;;;;;;;1.97;1.90;;;;;;;20.60;69.72;98913.47;5009755;28;20742;-70
2022/05/22 00:08:48;;;;;;;2.20;2.10;;;;;;;20.81;70.09;98950.84;5011163;28;20841;-70
2022/05/22 00:11:16;;;;;;;2.20;2.10;;;;;;;20.75;70.64;98943.50;5010872;28;20194;-70
2022/05/22 00:13:43;;;;;;;2.33;2.23;;;;;;;20.71;71.21;98947.31;5010926;28;20203;-70
2022/05/22 00:18:54;;;;;;;2.57;2.37;;;;;;;20.71;71.85;98936.88;5011148;28;20244;-71
2022/05/22 00:21:21;;;;;;;2.50;2.30;;;;;;;20.70;72.02;98932.66;5010565;28;20221;-70
2022/05/22 00:23:48;;;;;;;2.43;2.30;;;;;;;20.65;72.33;98929.56;5010877;28;20221;-70
2022/05/22 00:26:16;;;;;;;2.03;1.80;;;;;;;20.51;72.91;98916.81;5010750;28;20201;-71
2022/05/22 00:28:43;;;;;;;2.23;2.07;;;;;;;20.49;71.94;98933.47;5010930;28;20210;-70
2022/05/22 00:31:10;;;;;;;2.30;2.20;;;;;;;20.42;72.13;98928.75;5011050;28;20206;-70
2022/05/22 00:33:37;;;;;;;2.07;1.97;;;;;;;20.36;71.90;98931.00;5009881;28;20585;-70
2022/05/22 00:36:05;;;;;;;2.30;2.20;;;;;;;20.36;71.79;98925.78;5009855;28;20210;-70
2022/05/22 00:38:33;;;;;;;2.57;2.37;;;;;;;20.40;71.25;98929.81;5008530;28;20198;-70
2022/05/22 00:41:00;;;;;;;2.40;2.30;;;;;;;20.38;71.73;98919.53;5006952;28;20623;-70
2022/05/22 00:43:31;;;;;;;2.13;2.03;;;;;;;20.36;71.24;98915.38;5010671;28;20594;-70
2022/05/22 00:45:58;;;;;;;3.10;2.20;;;;;;;20.37;71.82;98917.03;5009652;28;20200;-70
2022/05/22 00:48:26;;;;;;;2.73;1.93;;;;;;;20.43;71.60;98922.59;5010461;28;20206;-71
2022/05/22 00:50:58;;;;;;;3.87;2.07;;;;;;;20.39;71.40;98895.16;5010386;28;20229;-70
2022/05/22 00:53:27;;;;;;;4.67;2.53;;;;;;;20.50;71.18;98902.13;5010488;28;20209;-70
2022/05/22 00:55:54;;;;;;;8.10;2.13;;;;;;;20.44;71.71;98913.03;5010566;28;20293;-70
2022/05/22 00:58:25;;;;;;;2.60;2.50;;;;;;;20.40;71.95;98911.59;5010470;28;20670;-70
2022/05/22 01:00:54;;;;;;;2.07;1.97;;;;;;;20.39;71.94;98910.75;5009204;28;20281;-70
2022/05/22 01:03:31;;;;;;;2.87;1.90;;;;;;;20.43;72.06;98908.75;5010410;28;20214;-71
2022/05/22 01:06:03;;;;;;;2.23;2.13;;;;;;;20.35;72.18;98896.34;5009825;28;20206;-70
2022/05/22 01:08:31;;;;;;;2.30;2.10;;;;;;;20.50;72.26;98917.75;5007885;28;20788;-70
2022/05/22 01:11:01;;;;;;;2.40;2.30;;;;;;;20.52;72.13;98910.63;5007292;28;20221;-70
2022/05/22 01:13:32;;;;;;;2.73;2.60;;;;;;;20.61;71.81;98914.31;5006114;28;20210;-70
2022/05/22 01:16:02;;;;;;;2.80;2.33;;;;;;;20.53;71.60;98881.03;5004821;28;20206;-70
2022/05/22 01:18:29;;;;;;;2.03;1.80;;;;;;;20.76;71.25;98898.28;5007476;28;20691;-70
2022/05/22 01:20:56;;;;;;;2.40;2.30;;;;;;;20.80;71.46;98884.06;5010093;28;20792;-70
2022/05/22 01:23:25;;;;;;;2.40;2.30;;;;;;;20.85;71.72;98899.31;5009620;28;20202;-70
2022/05/22 01:25:51;;;;;;;2.50;2.30;;;;;;;20.86;71.83;98891.41;5008623;28;20198;-71
2022/05/22 01:28:20;;;;;;;4.87;2.67;;;;;;;20.89;71.67;98901.56;5005940;28;20198;-70
2022/05/22 01:30:47;;;;;;;2.20;2.10;;;;;;;20.92;71.66;98901.31;5006944;28;20253;-71
2022/05/22 01:33:14;;;;;;;2.40;2.30;;;;;;;20.94;72.03;98899.41;5008456;28;20204;-70
2022/05/22 01:35:41;;;;;;;2.10;2.00;;;;;;;20.95;72.50;98888.03;5007100;28;20216;-71
2022/05/22 01:38:09;;;;;;;2.50;2.40;;;;;;;20.98;72.56;98886.13;5005409;28;20216;-70
2022/05/22 01:40:37;;;;;;;2.27;2.17;;;;;;;20.92;73.24;98877.03;5007538;28;20582;-70
2022/05/22 01:43:04;;;;;;;2.50;2.00;;;;;;;20.88;73.63;98881.66;5008401;28;20286;-71
2022/05/22 01:45:31;;;;;;;2.67;2.47;;;;;;;20.86;73.71;98880.97;5009250;28;20662;-70
2022/05/22 01:47:58;;;;;;;2.83;2.73;;;;;;;20.77;73.45;98863.47;5009921;28;20202;-70
2022/05/22 01:50:26;;;;;;;2.63;2.40;;;;;;;20.86;73.38;98878.38;5009824;28;20706;-69
2022/05/22 01:52:53;;;;;;;2.77;2.67;;;;;;;20.94;73.11;98881.16;5010709;28;20201;-71
2022/05/22 01:55:20;;;;;;;2.30;2.20;;;;;;;20.97;73.86;98885.31;5010366;28;20749;-70
2022/05/22 01:57:48;;;;;;;2.87;2.70;;;;;;;20.97;74.14;98876.69;5012972;28;20578;-71
2022/05/22 02:00:19;;;;;;;2.63;2.53;;;;;;;20.89;74.27;98870.31;5012263;28;20645;-71
2022/05/22 02:02:47;;;;;;;2.87;2.77;;;;;;;20.91;74.76;98881.41;5012534;28;20237;-70
2022/05/22 02:05:14;;;;;;;2.43;2.33;;;;;;;20.89;74.83;98878.13;5011803;28;20582;-70
2022/05/22 02:10:26;;;;;;;2.97;2.67;;;;;;;20.82;75.84;98887.38;5012991;28;20609;-71
2022/05/22 02:12:55;;;;;;;2.90;2.80;;;;;;;20.79;75.32;98879.81;5012962;28;20210;-71
2022/05/22 02:15:22;;;;;;;3.10;2.90;;;;;;;20.84;74.89;98888.06;5013862;28;21740;-70
2022/05/22 02:17:49;;;;;;;3.63;3.43;;;;;;;20.93;75.33;98900.38;5013270;28;20195;-70
2022/05/22 02:20:17;;;;;;;3.43;2.63;;;;;;;20.98;74.56;98897.38;5012751;28;20206;-70
2022/05/22 02:22:46;;;;;;;2.90;2.80;;;;;;;21.03;74.17;98900.47;5011844;28;20194;-71
2022/05/22 02:25:15;;;;;;;3.00;2.80;;;;;;;21.07;74.61;98901.03;5012706;28;20206;-71
2022/05/22 02:27:42;;;;;;;2.80;2.70;;;;;;;21.10;74.62;98893.81;5012672;28;20647;-70
2022/05/22 02:30:14;;;;;;;2.70;2.50;;;;;;;21.14;75.46;98894.41;5012633;28;20698;-70
2022/05/22 02:32:40;;;;;;;2.50;2.40;;;;;;;21.15;75.24;98894.28;5011587;28;20645;-70
2022/05/22 02:35:10;;;;;;;2.80;2.70;;;;;;;21.12;74.89;98889.31;5011313;28;20201;-70
2022/05/22 02:37:41;;;;;;;3.33;3.13;;;;;;;21.14;74.73;98889.19;5012279;28;20217;-70
2022/05/22 02:40:10;;;;;;;3.17;2.97;;;;;;;21.16;74.83;98884.69;5012843;28;20201;-70
2022/05/22 02:42:40;;;;;;;3.13;3.03;;;;;;;21.14;75.33;98882.19;5012845;28;20273;-70
2022/05/22 02:45:08;;;;;;;3.23;3.13;;;;;;;21.10;75.18;98882.59;5012023;28;20202;-70
2022/05/22 02:47:37;;;;;;;2.90;2.77;;;;;;;21.06;75.41;98881.97;5012292;28;20202;-70
2022/05/22 02:50:05;;;;;;;3.07;2.97;;;;;;;21.03;75.32;98876.19;5012215;28;20269;-70
2022/05/22 02:52:32;;;;;;;2.70;2.57;;;;;;;20.98;75.70;98880.91;5012659;28;20260;-70
2022/05/22 02:54:59;;;;;;;2.90;2.70;;;;;;;20.93;76.30;98879.53;5011408;28;20198;-70
2022/05/22 02:57:25;;;;;;;2.70;2.60;;;;;;;20.88;76.30;98881.66;5011768;28;20704;-70
2022/05/22 02:59:55;;;;;;;3.23;3.13;;;;;;;20.80;76.66;98881.47;5011958;28;20193;-71
2022/05/22 03:02:22;;;;;;;3.83;3.53;;;;;;;20.63;77.97;98876.78;5010832;28;20214;-71
2022/05/22 03:04:51;;;;;;;3.67;3.30;;;;;;;20.50;79.31;98891.72;5011867;28;20582;-71
2022/05/22 03:07:19;;;;;;;2.70;2.50;;;;;;;20.40;80.13;98885.56;5012190;28;20230;-71
2022/05/22 03:09:49;;;;;;;2.53;2.43;;;;;;;20.31;81.08;98884.50;5011996;28;20311;-70
2022/05/22 03:12:18;;;;;;;3.33;3.13;;;;;;;20.20;82.28;98878.44;5012077;28;20577;-70
2022/05/22 03:14:46;;;;;;;3.40;3.30;;;;;;;20.16;83.08;98888.25;5010848;28;20205;-70
2022/05/22 03:17:14;;;;;;;2.70;2.60;;;;;;;20.09;84.19;98886.25;5010586;28;20194;-70
2022/05/22 03:19:41;;;;;;;3.50;3.40;;;;;;;20.08;84.95;98892.41;5011794;28;20202;-71
2022/05/22 03:22:11;;;;;;;3.30;3.20;;;;;;;20.10;85.57;98890.50;5011440;28;20249;-70
2022/05/22 03:24:38;;;;;;;11.73;3.63;;;;;;;20.10;85.77;98896.53;5011703;28;20214;-72
2022/05/22 03:27:07;;;;;;;3.70;3.50;;;;;;;20.09;87.09;98891.47;5011309;28;20204;-70
2022/05/22 03:29:34;;;;;;;3.30;3.00;;;;;;;20.10;87.59;98890.50;5011432;28;20733;-71
2022/05/22 03:32:01;;;;;;;3.27;3.17;;;;;;;20.12;88.04;98892.06;5009761;28;20210;-70
2022/05/22 03:34:28;;;;;;;3.67;3.57;;;;;;;20.17;88.01;98889.09;5010626;28;20213;-70
2022/05/22 03:36:55;;;;;;;3.27;3.17;;;;;;;20.19;88.64;98892.41;5010259;28;20201;-71
2022/05/22 03:39:24;;;;;;;3.57;3.37;;;;;;;20.13;88.99;98887.69;5010168;28;20198;-70
2022/05/22 03:41:51;;;;;;;6.27;3.67;;;;;;;20.13;89.23;98877.28;5008725;28;20190;-70
2022/05/22 03:44:19;;;;;;;3.93;3.73;;;;;;;20.28;89.34;98902.97;5009978;28;20230;-71
2022/05/22 03:46:46;;;;;;;3.60;3.40;;;;;;;20.30;89.57;98890.66;5010207;28;20256;-71
2022/05/22 03:49:13;;;;;;;4.10;3.90;;;;;;;20.31;89.40;98878.47;5009889;28;20210;-70
2022/05/22 03:51:42;;;;;;;3.93;3.47;;;;;;;20.42;89.60;98894.06;5009979;28;20342;-70
2022/05/22 03:54:09;;;;;;;3.47;3.27;;;;;;;20.46;90.01;98903.31;5010604;28;20242;-70
2022/05/22 03:56:42;;;;;;;3.83;3.63;;;;;;;20.47;90.14;98901.53;5010783;28;20212;-69
2022/05/22 03:59:09;;;;;;;4.93;4.50;;;;;;;20.48;89.86;98904.03;5009599;28;20240;-70
2022/05/22 04:01:37;;;;;;;5.27;3.13;;;;;;;20.54;89.33;98898.34;5011502;28;20228;-70
2022/05/22 04:04:04;;;;;;;9.30;4.00;;;;;;;20.55;89.42;98897.38;5011119;28;20263;-70
2022/05/22 04:06:31;;;;;;;3.23;2.90;;;;;;;20.54;88.83;98893.13;5011197;28;20198;-70
2022/05/22 04:08:58;;;;;;;4.77;4.03;;;;;;;20.60;88.21;98903.06;5010854;28;20597;-70
2022/05/22 04:11:24;;;;;;;3.77;3.57;;;;;;;20.63;87.96;98902.81;5012155;28;20552;-70
2022/05/22 04:13:53;;;;;;;3.60;3.30;;;;;;;20.68;87.13;98900.66;5011421;28;20551;-70
2022/05/22 04:16:20;;;;;;;3.33;3.20;;;;;;;20.73;86.72;98897.69;5010029;28;20201;-70
2022/05/22 04:18:47;;;;;;;4.77;4.37;;;;;;;20.79;85.88;98903.25;5011542;28;20646;-70
2022/05/22 04:21:14;;;;;;;4.00;3.70;;;;;;;20.82;85.91;98903.00;5010812;28;20198;-70
2022/05/22 04:26:30;;;;;;;3.87;3.67;;;;;;;21.03;83.95;98910.06;5010815;28;20280;-70
2022/05/22 04:28:59;;;;;;;3.60;3.40;;;;;;;21.10;83.19;98914.66;5006638;28;20202;-70
2022/05/22 04:31:26;;;;;;;3.27;3.07;;;;;;;21.15;82.79;98903.88;5009314;28;20699;-71
2022/05/22 04:33:53;;;;;;;3.80;3.60;;;;;;;21.23;82.04;98896.25;5010908;28;20209;-71
2022/05/22 04:36:19;;;;;;;3.17;3.07;;;;;;;21.37;81.08;98912.44;5010568;28;20662;-71
2022/05/22 04:38:46;;;;;;;3.50;3.30;;;;;;;21.40;80.12;98899.13;5011082;28;20568;-70
2022/05/22 04:41:13;;;;;;;2.97;2.87;;;;;;;21.52;79.32;98912.94;5010321;28;20578;-70
2022/05/22 04:43:40;;;;;;;3.07;2.97;;;;;;;21.59;78.44;98913.25;5010576;28;20208;-70
2022/05/22 04:46:09;;;;;;;3.13;2.93;;;;;;;21.62;76.85;98913.84;5009784;28;20213;-71
2022/05/22 04:48:36;;;;;;;3.17;2.97;;;;;;;21.65;76.42;98910.16;5009916;28;20198;-71
2022/05/22 04:51:03;;;;;;;3.30;3.10;;;;;;;21.71;75.39;98918.28;5010744;28;20224;-71
2022/05/22 04:53:30;;;;;;;3.40;3.20;;;;;;;21.80;75.02;98922.75;5008328;28;20203;-70
2022/05/22 04:55:58;;;;;;;3.03;2.93;;;;;;;21.84;74.41;98931.16;5009046;28;20206;-70
2022/05/22 04:58:25;;;;;;;2.97;2.77;;;;;;;21.87;75.51;98934.31;5009657;28;20210;-70
2022/05/22 05:00:52;;;;;;;3.47;3.27;;;;;;;21.89;75.02;98931.63;5009111;28;20198;-70
2022/05/22 05:03:21;;;;;;;4.03;3.80;;;;;;;21.95;74.70;98939.75;5009496;28;20204;-69
2022/05/22 05:05:57;;;;;;;3.70;3.40;;;;;;;21.92;74.46;98932.19;5008677;28;20205;-70
2022/05/22 05:08:24;;;;;;;3.27;3.17;;;;;;;22.01;75.10;98940.19;5008476;28;20679;-70
2022/05/22 05:10:52;;;;;;;2.77;2.63;;;;;;;22.01;73.82;98929.75;5009306;28;20697;-71
2022/05/22 05:13:19;;;;;;;3.10;2.77;;;;;;;22.13;73.94;98944.41;5007438;28;20211;-71
2022/05/22 05:15:47;;;;;;;3.30;3.10;;;;;;;22.13;73.55;98931.34;5003578;28;20199;-71
2022/05/22 05:18:15;;;;;;;6.13;3.20;;;;;;;22.17;73.18;98933.53;5002018;28;20203;-71
2022/05/22 05:20:51;;;;;;;3.37;3.17;;;;;;;22.19;73.64;98929.03;5006049;28;20223;-71
2022/05/22 05:23:18;;;;;;;3.10;3.00;;;;;;;22.23;73.31;98935.63;5009304;28;20208;-71
2022/05/22 05:25:44;;;;;;;2.63;2.53;;;;;;;22.20;73.54;98917.63;5003627;28;20320;-71
2022/05/22 05:28:11;;;;;;;2.77;2.67;;;;;;;22.27;72.79;98925.75;5006728;28;20318;-71
2022/05/22 05:30:38;;;;;;;2.93;2.83;;;;;;;22.29;73.07;98929.09;5004617;28;20227;-70
2022/05/22 05:33:05;;;;;;;2.77;2.67;;;;;;;22.37;72.46;98926.63;5007214;28;20213;-71
2022/05/22 05:35:32;;;;;;;5.23;3.77;;;;;;;22.69;72.66;98932.53;5013306;28;20208;-70
2022/05/22 05:38:01;;;;;;;2.60;2.50;;;;;;;23.04;71.33;98926.00;5002098;28;20232;-72
2022/05/22 05:40:27;;;;;;;3.93;2.73;;;;;;;23.32;69.27;98919.97;5012576;28;20292;-71
2022/05/22 05:42:55;;;;;;;2.47;2.37;;;;;;;23.60;66.63;98932.22;5009805;28;20210;-71
2022/05/22 05:45:22;;;;;;;2.50;2.40;;;;;;;23.97;65.43;98927.88;5012108;28;20263;-69
2022/05/22 05:47:50;;;;;;;2.87;2.67;;;;;;;24.38;63.82;98926.66;5011443;28;20614;-71
2022/05/22 05:50:21;;;;;;;2.53;2.40;;;;;;;24.68;61.54;98928.19;5010596;28;20693;-72
2022/05/22 05:52:48;;;;;;;2.00;1.90;;;;;;;24.84;60.97;98928.38;5011842;28;20682;-71
2022/05/22 05:55:17;;;;;;;2.60;2.40;;;;;;;25.13;60.68;98932.59;5004159;28;20297;-71
2022/05/22 05:57:45;;;;;;;2.20;2.07;;;;;;;25.45;58.32;98927.66;5009174;28;20213;-71
2022/05/22 06:00:16;;;;;;;1.60;1.60;;;;;;;25.61;55.59;98912.06;5011095;28;20202;-72
2022/05/22 06:02:43;;;;;;;2.17;2.10;;;;;;;25.94;55.59;98918.34;5010362;28;20205;-71
2022/05/22 06:05:10;;;;;;;4.70;2.33;;;;;;;26.16;53.08;98938.88;5010388;28;20205;-71
2022/05/22 06:07:38;;;;;;;2.30;2.20;;;;;;;26.16;50.90;98943.28;5011679;28;20711;-71
2022/05/22 06:10:05;;;;;;;2.17;2.07;;;;;;;26.15;52.02;98933.72;5012009;28;20206;-71
2022/05/22 06:12:34;;;;;;;1.70;1.60;;;;;;;26.09;51.98;98946.53;5009377;28;20217;-72
2022/05/22 06:15:01;;;;;;;1.67;1.63;;;;;;;26.26;50.19;98944.03;5011660;28;20213;-72
2022/05/22 06:17:32;;;;;;;1.70;1.60;;;;;;;26.51;48.42;98937.88;5010922;28;20209;-69
2022/05/22 06:19:59;;;;;;;1.60;1.50;;;;;;;26.72;48.59;98945.38;5012036;28;20206;-73
2022/05/22 06:22:28;;;;;;;2.00;1.90;;;;;;;27.08;49.12;98947.63;5011709;28;20208;-74
2022/05/22 06:24:57;;;;;;;2.20;2.10;;;;;;;27.24;48.92;98911.81;5011997;28;20204;-73
2022/05/22 06:27:24;;;;;;;2.07;1.97;;;;;;;27.71;45.86;98944.41;5011765;28;20204;-73
2022/05/22 06:29:53;;;;;;;1.80;1.70;;;;;;;27.89;45.89;98952.13;5010069;28;20205;-73
2022/05/22 06:32:21;;;;;;;2.07;1.87;;;;;;;27.89;44.45;98931.03;5010989;28;20226;-73
2022/05/22 06:34:48;;;;;;;3.40;1.50;;;;;;;28.28;43.02;98957.50;5011300;28;20213;-73
2022/05/22 06:37:19;;;;;;;1.60;1.53;;;;;;;28.51;44.80;98938.16;5012519;28;20571;-75
2022/05/22 06:39:51;;;;;;;1.50;1.50;;;;;;;28.36;41.54;98921.41;5008905;28;20202;-73
2022/05/22 06:42:21;;;;;;;1.67;1.57;;;;;;;28.44;41.92;98957.44;5011790;28;20202;-74
2022/05/22 06:44:53;;;;;;;2.07;1.37;;;;;;;28.34;41.12;98951.53;5009117;28;20214;-74
2022/05/22 06:47:20;;;;;;;1.30;1.30;;;;;;;28.28;40.20;98947.78;5012249;28;20202;-73
2022/05/22 06:49:48;;;;;;;2.10;1.50;;;;;;;28.41;42.22;98948.06;5011751;28;20216;-75
2022/05/22 06:52:15;;;;;;;1.10;1.10;;;;;;;28.65;42.39;98944.53;5011649;28;20642;-74
2022/05/22 06:54:42;;;;;;;1.10;1.10;;;;;;;28.99;40.34;98945.03;5011921;28;20593;-73
2022/05/22 06:57:09;;;;;;;3.80;1.10;;;;;;;29.18;38.58;98946.38;5011971;28;20692;-74
2022/05/22 06:59:36;;;;;;;1.97;1.20;;;;;;;29.09;37.73;98950.91;5012217;28;20206;-75
2022/05/22 07:02:05;;;;;;;1.23;1.23;;;;;;;28.55;37.57;98954.44;5011097;28;20221;-72
2022/05/22 07:04:32;;;;;;;1.20;1.20;;;;;;;28.22;39.02;98958.19;5011518;28;20278;-71
2022/05/22 07:06:59;;;;;;;1.83;1.73;;;;;;;27.96;40.21;98953.09;5010955;28;20217;-71
2022/05/22 07:09:26;;;;;;;1.20;1.20;;;;;;;27.86;39.81;98953.28;5007803;28;20215;-71
2022/05/22 07:11:55;;;;;;;0.97;0.97;;;;;;;27.66;40.82;98956.44;5009028;28;20225;-71
2022/05/22 07:14:23;;;;;;;1.80;1.20;;;;;;;27.46;40.95;98953.31;5010591;28;20214;-70
2022/05/22 07:16:50;;;;;;;1.20;1.20;;;;;;;27.43;41.60;98956.25;5010836;28;20228;-71
2022/05/22 07:19:20;;;;;;;1.20;1.20;;;;;;;27.31;41.96;98960.97;5010231;28;20202;-70
2022/05/22 07:21:46;;;;;;;0.90;0.90;;;;;;;27.28;42.00;98955.22;5009606;28;20196;-71
2022/05/22 07:24:13;;;;;;;1.23;1.23;;;;;;;27.27;41.25;98957.00;5007286;28;20207;-71
2022/05/22 07:26:41;;;;;;;1.80;1.70;;;;;;;27.09;41.26;98954.53;5006576;28;20198;-70
2022/05/22 07:29:08;;;;;;;2.95;1.63;;;;;;;27.06;40.39;98954.88;5007754;28;20489;-66
2022/05/22 07:31:35;;;;;;;2.33;1.20;;;;;;;27.09;40.94;98944.00;5012838;28;20662;-68
2022/05/22 07:34:02;;;;;;;1.50;1.37;;;;;;;27.25;40.70;98947.66;5010989;28;20204;-68
2022/05/22 07:36:30;;;;;;;0.87;0.87;;;;;;;27.34;41.51;98936.97;5011611;28;20204;-68
2022/05/22 07:38:57;;;;;;;1.90;1.30;;;;;;;27.32;41.43;98935.47;5011896;28;20673;-67
2022/05/22 07:41:24;;;;;;;3.23;1.00;;;;;;;27.41;41.06;98937.13;5011653;28;20214;-67
2022/05/22 07:43:51;;;;;;;0.90;0.90;;;;;;;27.47;40.71;98925.97;5011803;28;20205;-68
2022/05/22 07:46:18;;;;;;;3.73;1.17;;;;;;;27.44;39.98;98923.66;5011702;28;20200;-67
2022/05/22 07:48:45;;;;;;;2.17;1.20;;;;;;;27.78;39.90;98910.31;5011887;28;20692;-67
2022/05/22 07:51:13;;;;;;;1.17;0.93;;;;;;;27.82;39.27;98904.53;5011755;28;20248;-68
2022/05/22 07:53:41;;;;;;;1.47;1.30;;;;;;;28.03;39.27;98914.53;5010911;28;20655;-68
2022/05/22 07:56:09;;;;;;;1.10;1.00;;;;;;;28.09;39.50;98922.63;5010295;28;20720;-67
2022/05/22 07:58:36;;;;;;;0.97;0.97;;;;;;;28.06;38.55;98925.59;5010693;28;20209;-67
2022/05/22 08:01:03;;;;;;;2.93;0.90;;;;;;;28.08;37.19;98931.53;5010657;28;20678;-67
2022/05/22 08:03:32;;;;;;;4.50;1.47;;;;;;;28.22;38.05;98910.72;5010846;28;20205;-67
2022/05/22 08:06:00;;;;;;;1.60;1.00;;;;;;;28.60;37.20;98931.00;5009396;28;20622;-67
2022/05/22 08:08:28;;;;;;;0.80;0.80;;;;;;;28.46;38.01;98924.66;5011202;28;20602;-67
2022/05/22 08:10:58;;;;;;;0.77;0.77;;;;;;;28.29;37.73;98927.50;5011528;28;20301;-67
2022/05/22 08:13:26;;;;;;;2.30;1.00;;;;;;;28.04;36.53;98914.41;5010484;28;20229;-67
2022/05/22 08:15:53;;;;;;;0.77;0.77;;;;;;;28.11;36.75;98928.56;5011068;28;20204;-67
2022/05/22 08:18:20;;;;;;;4.70;1.13;;;;;;;28.23;36.20;98909.75;5011153;28;20670;-67
2022/05/22 08:20:49;;;;;;;1.33;1.00;;;;;;;28.51;35.65;98921.50;5010981;28;20210;-67
2022/05/22 08:23:20;;;;;;;5.40;1.20;;;;;;;28.60;35.53;98925.72;5010296;28;20213;-67
2022/05/22 08:25:48;;;;;;;2.43;1.03;;;;;;;28.55;34.82;98930.72;5010539;28;20225;-67
2022/05/22 08:28:17;;;;;;;0.80;0.80;;;;;;;28.51;34.32;98934.69;5006906;28;20220;-67
2022/05/22 08:30:44;;;;;;;0.93;0.93;;;;;;;28.38;34.43;98927.31;5008701;28;20204;-67
2022/05/22 08:33:12;;;;;;;1.23;0.80;;;;;;;28.08;34.58;98888.53;5007212;28;20346;-67
2022/05/22 08:35:42;;;;;;;1.00;1.00;;;;;;;28.15;35.29;98919.31;5009232;28;20206;-67
2022/05/22 08:38:10;;;;;;;1.17;1.07;;;;;;;28.12;35.75;98919.66;5010445;28;20209;-67
2022/05/22 08:40:52;;;;;;;1.10;1.00;;;;;;;28.15;35.01;98910.59;5005603;28;20206;-66
2022/05/22 08:43:30;;;;;;;0.87;0.87;;;;;;;28.13;34.96;98907.31;5011165;28;20194;-67
2022/05/22 08:46:04;;;;;;;1.93;1.13;;;;;;;28.12;35.57;98890.66;5010616;28;20201;-67
2022/05/22 08:48:35;;;;;;;2.27;0.97;;;;;;;28.11;36.06;98906.66;5006161;28;20321;-67
2022/05/22 08:51:02;;;;;;;1.43;0.87;;;;;;;28.10;36.11;98908.47;5010479;28;20210;-67
2022/05/22 08:53:36;;;;;;;3.50;0.90;;;;;;;28.02;37.20;98908.44;5009464;28;20237;-67
2022/05/22 08:59:00;;;;;;;0.73;0.73;;;;;;;27.88;35.72;98897.78;5010747;28;20208;-67
2022/05/22 09:01:35;;;;;;;2.37;0.90;;;;;;;27.72;36.09;98888.13;5005090;28;20206;-67
2022/05/22 09:04:13;;;;;;;0.73;0.73;;;;;;;27.82;36.30;98903.75;5014207;28;20212;-67
2022/05/22 09:06:44;;;;;;;1.10;1.00;;;;;;;27.76;36.54;98904.38;5010654;28;20215;-67
2022/05/22 09:09:11;;;;;;;5.20;1.20;;;;;;;27.79;36.89;98899.59;5014505;28;20632;-67
2022/05/22 09:11:57;;;;;;;0.87;0.87;;;;;;;27.84;37.83;98892.03;5014618;28;20234;-68
2022/05/22 09:14:36;;;;;;;0.90;0.90;;;;;;;28.13;36.68;98889.69;5007989;28;20201;-67
2022/05/22 09:17:11;;;;;;;4.83;0.90;;;;;;;28.48;36.02;98890.19;5013517;28;20605;-67
2022/05/22 09:19:44;;;;;;;0.87;0.87;;;;;;;28.59;34.78;98887.19;5013245;28;20210;-68
2022/05/22 09:22:22;;;;;;;2.90;1.00;;;;;;;28.74;35.38;98889.91;5012871;28;20198;-68
2022/05/22 09:25:00;;;;;;;1.93;0.97;;;;;;;28.77;35.53;98884.31;5014439;28;20256;-68
2022/05/22 09:27:40;;;;;;;1.70;0.67;;;;;;;28.88;34.12;98882.09;5014215;28;20204;-68
2022/05/22 09:30:14;;;;;;;1.57;1.10;;;;;;;28.88;35.27;98866.25;5014099;28;20205;-67
2022/05/22 09:32:57;;;;;;;0.80;0.80;;;;;;;29.00;36.50;98871.94;5014438;28;20225;-67
2022/05/22 09:35:32;;;;;;;1.97;1.43;;;;;;;29.10;35.28;98859.34;5014581;28;20205;-67
2022/05/22 09:38:19;;;;;;;1.93;1.60;;;;;;;29.26;37.35;98855.78;5014523;28;20581;-67
2022/05/22 09:40:48;;;;;;;4.60;3.30;;;;;;;29.37;33.35;98861.44;5014607;28;20198;-67
2022/05/22 09:43:42;;;;;;;8.43;3.50;;;;;;;29.41;33.92;98851.34;5013837;28;20201;-68
2022/05/22 09:46:40;;;;;;;1.50;1.40;;;;;;;29.57;35.57;98845.91;4998670;28;20202;-67
2022/05/22 09:49:20;;;;;;;2.57;1.80;;;;;;;29.71;34.86;98847.75;5013702;28;20678;-68
2022/05/22 09:51:55;;;;;;;1.13;1.00;;;;;;;29.59;34.07;98849.19;5014082;28;20264;-67
2022/05/22 09:54:39;;;;;;;4.47;2.30;;;;;;;29.41;33.00;98835.50;5013784;28;20259;-67
2022/05/22 09:57:19;;;;;;;5.80;1.60;;;;;;;29.41;34.79;98838.97;5013871;28;20585;-68
2022/05/22 10:00:07;;;;;;;6.87;2.03;;;;;;;29.16;33.16;98838.34;5013893;28;20198;-68
2022/05/22 10:02:45;;;;;;;2.37;2.03;;;;;;;28.67;33.50;98842.31;5012193;28;20197;-67
2022/05/22 10:05:22;;;;;;;1.20;1.20;;;;;;;28.68;33.07;98841.31;5013059;28;20341;-67
2022/05/22 10:07:56;;;;;;;1.50;1.40;;;;;;;28.75;34.89;98852.81;5013147;28;20239;-67
2022/05/22 10:10:31;;;;;;;2.07;1.97;;;;;;;28.83;34.46;98849.28;5013369;28;20197;-68
2022/05/22 10:13:09;;;;;;;4.80;2.80;;;;;;;29.02;36.09;98852.28;5006004;28;20236;-68
2022/05/22 10:15:46;;;;;;;2.00;1.53;;;;;;;29.19;34.25;98843.25;5012787;28;20213;-68
2022/05/22 10:18:45;;;;;;;4.57;1.10;;;;;;;29.34;31.37;98850.44;5012204;28;20303;-68
2022/05/22 10:21:19;;;;;;;0.93;0.93;;;;;;;29.48;32.85;98841.69;5011512;28;21007;-66
2022/05/22 10:24:03;;;;;;;3.80;0.90;;;;;;;29.64;31.99;98852.09;5011192;28;20199;-66
2022/05/22 10:26:41;;;;;;;1.43;1.33;;;;;;;29.65;31.57;98853.75;5012134;28;20205;-66
2022/05/22 10:29:17;;;;;;;1.47;1.20;;;;;;;29.58;31.68;98847.53;5010989;28;20198;-66
2022/05/22 10:31:52;;;;;;;0.80;0.80;;;;;;;29.63;30.63;98859.22;5011187;28;20225;-66
2022/05/22 10:34:31;;;;;;;1.67;0.90;;;;;;;29.70;31.72;98867.22;5011563;28;20224;-66
2022/05/22 10:37:01;;;;;;;0.90;0.80;;;;;;;29.93;32.28;98856.63;5011500;28;20210;-66
2022/05/22 10:39:28;;;;;;;1.63;0.77;;;;;;;30.09;32.08;98854.63;5011229;28;20641;-66
2022/05/22 10:44:58;;;;;;;0.70;0.70;;;;;;;30.10;30.09;98843.03;4977132;28;20206;-66
2022/05/22 10:47:28;;;;;;;0.67;0.60;;;;;;;30.28;32.41;98847.09;5011030;28;20202;-66
2022/05/22 10:49:58;;;;;;;2.27;0.90;;;;;;;30.45;31.17;98845.94;5010467;28;20574;-66
2022/05/22 10:52:27;;;;;;;1.90;0.97;;;;;;;30.50;30.43;98843.56;5011557;28;20225;-66
2022/05/22 10:54:56;;;;;;;0.80;0.80;;;;;;;30.41;31.54;98823.50;5011427;28;20201;-66
2022/05/22 10:57:24;;;;;;;2.90;1.10;;;;;;;30.54;32.63;98832.41;5012144;28;20202;-66
2022/05/22 10:59:51;;;;;;;3.60;1.33;;;;;;;30.41;29.81;98829.59;5010685;28;20317;-66
2022/05/22 11:02:23;;;;;;;0.97;0.97;;;;;;;30.49;31.80;98812.81;5011617;28;20206;-66
2022/05/22 11:04:51;;;;;;;0.80;0.80;;;;;;;30.67;31.11;98807.91;5012550;28;20210;-66
2022/05/22 11:07:33;;;;;;;0.90;0.90;;;;;;;30.78;32.24;98810.06;5009372;28;20307;-66
2022/05/22 11:10:09;;;;;;;2.73;1.00;;;;;;;30.97;32.26;98812.09;5009094;28;20209;-66
2022/05/22 11:12:36;;;;;;;7.27;1.20;;;;;;;30.98;30.72;98804.97;5009306;28;20221;-66
2022/05/22 11:15:06;;;;;;;0.77;0.70;;;;;;;31.07;31.08;98802.00;5010300;28;20559;-65
2022/05/22 11:17:33;;;;;;;1.70;1.03;;;;;;;31.04;32.36;98789.16;5010664;28;22273;-66
2022/05/22 11:20:09;;;;;;;0.80;0.80;;;;;;;31.09;32.34;98796.50;5010377;28;20198;-66
2022/05/22 11:22:43;;;;;;;2.40;1.03;;;;;;;31.14;30.58;98786.16;5005430;28;20204;-65
2022/05/22 11:25:27;;;;;;;1.60;1.10;;;;;;;31.30;32.82;98787.72;5008184;28;20194;-66
2022/05/22 11:28:05;;;;;;;2.13;0.90;;;;;;;31.32;31.30;98785.69;5011385;28;20625;-65
2022/05/22 11:30:44;;;;;;;1.27;1.07;;;;;;;31.20;31.55;98778.28;5009469;28;20547;-66
2022/05/22 11:33:41;;;;;;;0.87;0.87;;;;;;;31.32;32.08;98780.38;5006800;28;20213;-66
2022/05/22 11:36:25;;;;;;;1.33;0.80;;;;;;;31.18;32.59;98774.19;5008810;28;20241;-66
2022/05/22 11:39:15;;;;;;;1.03;0.80;;;;;;;31.13;30.98;98772.09;5009200;28;20204;-66
2022/05/22 11:41:48;;;;;;;212.40;94.93;;;;;;;31.22;32.76;98763.00;5009302;28;20209;-65
2022/05/22 11:44:44;;;;;;;337.93;153.50;;;;;;;31.37;33.83;98765.56;5005484;28;20717;-66
2022/05/22 11:47:30;;;;;;;45.33;31.20;;;;;;;31.28;34.86;98750.00;4980888;28;20588;-65
2022/05/22 11:50:07;;;;;;;10.43;8.27;;;;;;;30.96;34.29;98759.31;5009801;28;20204;-66
2022/05/22 11:52:56;;;;;;;18.93;10.73;;;;;;;30.86;35.82;98746.38;5004875;28;20229;-65
2022/05/22 11:55:37;;;;;;;12.37;8.33;;;;;;;30.67;36.47;98753.16;5001930;28;20206;-65
2022/05/22 11:58:18;;;;;;;26.70;14.07;;;;;;;30.69;35.67;98748.50;5010238;28;20569;-66
2022/05/22 12:00:54;;;;;;;43.47;17.30;;;;;;;30.55;34.37;98752.03;5008533;28;20209;-65
2022/05/22 12:03:53;;;;;;;4.83;4.40;;;;;;;30.45;34.18;98751.53;5009543;28;20196;-66